sensor_id;sensor_type;location;lat;lon;timestamp;P1;durP1;ratioP1;P2;durP2;ratioP2
7080;SDS011;3582;51.506;11.948;2023-11-21T00:01:01;8.90;;;4.90;;
7080;SDS011;3582;51.506;11.948;2023-11-21T00:03:28;5.55;;;4.45;;
7080;SDS011;3582;51.506;11.948;2023-11-21T00:05:54;7.33;;;5.23;;
7080;SDS011;3582;51.506;11.948;2023-11-21T00:08:20;6.37;;;4.10;;
7080;SDS011;3582;51.506;11.948;2023-11-21T00:10:46;5.20;;;4.57;;
7080;SDS011;3582;51.506;11.948;2023-11-21T00:13:13;5.97;;;4.63;;
7080;SDS011;3582;51.506;11.948;2023-11-21T00:15:39;9.95;;;4.55;;
7080;SDS011;3582;51.506;11.948;2023-11-21T00:18:05;6.45;;;4.57;;
7080;SDS011;3582;51.506;11.948;2023-11-21T00:20:31;4.65;;;4.15;;
7080;SDS011;3582;51.506;11.948;2023-11-21T00:22:57;11.45;;;5.38;;
7080;SDS011;3582;51.506;11.948;2023-11-21T00:25:24;9.57;;;4.93;;
7080;SDS011;3582;51.506;11.948;2023-11-21T00:27:50;6.90;;;5.30;;
7080;SDS011;3582;51.506;11.948;2023-11-21T00:30:16;7.17;;;5.80;;
7080;SDS011;3582;51.506;11.948;2023-11-21T00:32:42;7.57;;;5.05;;
7080;SDS011;3582;51.506;11.948;2023-11-21T00:35:08;6.77;;;4.73;;
7080;SDS011;3582;51.506;11.948;2023-11-21T00:37:35;9.10;;;5.07;;
7080;SDS011;3582;51.506;11.948;2023-11-21T00:40:01;6.57;;;5.07;;
7080;SDS011;3582;51.506;11.948;2023-11-21T00:42:30;7.55;;;6.10;;
7080;SDS011;3582;51.506;11.948;2023-11-21T00:44:58;7.07;;;4.95;;
7080;SDS011;3582;51.506;11.948;2023-11-21T00:47:24;7.50;;;6.00;;
7080;SDS011;3582;51.506;11.948;2023-11-21T00:49:51;8.60;;;6.03;;
7080;SDS011;3582;51.506;11.948;2023-11-21T00:52:17;10.55;;;6.47;;
7080;SDS011;3582;51.506;11.948;2023-11-21T00:54:43;8.50;;;5.40;;
7080;SDS011;3582;51.506;11.948;2023-11-21T00:57:09;13.60;;;6.70;;
7080;SDS011;3582;51.506;11.948;2023-11-21T00:59:37;11.10;;;5.63;;
7080;SDS011;3582;51.506;11.948;2023-11-21T01:02:03;6.82;;;5.45;;
7080;SDS011;3582;51.506;11.948;2023-11-21T01:04:30;7.30;;;4.60;;
7080;SDS011;3582;51.506;11.948;2023-11-21T01:06:57;8.85;;;5.45;;
7080;SDS011;3582;51.506;11.948;2023-11-21T01:09:23;6.82;;;4.75;;
7080;SDS011;3582;51.506;11.948;2023-11-21T01:11:49;10.43;;;6.60;;
7080;SDS011;3582;51.506;11.948;2023-11-21T01:14:16;7.75;;;6.95;;
7080;SDS011;3582;51.506;11.948;2023-11-21T01:16:42;9.90;;;5.40;;
7080;SDS011;3582;51.506;11.948;2023-11-21T01:19:08;11.70;;;6.30;;
7080;SDS011;3582;51.506;11.948;2023-11-21T01:21:34;16.77;;;7.30;;
7080;SDS011;3582;51.506;11.948;2023-11-21T01:24:00;15.07;;;8.90;;
7080;SDS011;3582;51.506;11.948;2023-11-21T01:26:27;9.00;;;6.72;;
7080;SDS011;3582;51.506;11.948;2023-11-21T01:28:53;12.03;;;6.90;;
7080;SDS011;3582;51.506;11.948;2023-11-21T01:31:19;9.10;;;5.83;;
7080;SDS011;3582;51.506;11.948;2023-11-21T01:33:45;7.82;;;5.95;;
7080;SDS011;3582;51.506;11.948;2023-11-21T01:36:11;9.43;;;5.90;;
7080;SDS011;3582;51.506;11.948;2023-11-21T01:38:37;9.40;;;7.30;;
7080;SDS011;3582;51.506;11.948;2023-11-21T01:41:03;11.20;;;5.80;;
7080;SDS011;3582;51.506;11.948;2023-11-21T01:43:31;12.98;;;6.85;;
7080;SDS011;3582;51.506;11.948;2023-11-21T01:45:57;10.85;;;7.47;;
7080;SDS011;3582;51.506;11.948;2023-11-21T01:48:24;8.27;;;6.15;;
7080;SDS011;3582;51.506;11.948;2023-11-21T01:50:50;10.38;;;6.68;;
7080;SDS011;3582;51.506;11.948;2023-11-21T01:53:17;10.85;;;6.63;;
7080;SDS011;3582;51.506;11.948;2023-11-21T01:55:43;11.00;;;8.35;;
7080;SDS011;3582;51.506;11.948;2023-11-21T01:58:10;10.27;;;5.75;;
7080;SDS011;3582;51.506;11.948;2023-11-21T02:00:37;9.18;;;6.65;;
7080;SDS011;3582;51.506;11.948;2023-11-21T02:03:03;11.50;;;6.33;;
7080;SDS011;3582;51.506;11.948;2023-11-21T02:05:29;8.98;;;6.28;;
7080;SDS011;3582;51.506;11.948;2023-11-21T02:07:55;12.07;;;7.60;;
7080;SDS011;3582;51.506;11.948;2023-11-21T02:10:21;7.07;;;5.63;;
7080;SDS011;3582;51.506;11.948;2023-11-21T02:12:48;7.07;;;5.78;;
7080;SDS011;3582;51.506;11.948;2023-11-21T02:15:15;15.95;;;7.82;;
7080;SDS011;3582;51.506;11.948;2023-11-21T02:17:48;7.38;;;5.50;;
7080;SDS011;3582;51.506;11.948;2023-11-21T02:20:19;8.90;;;6.05;;
7080;SDS011;3582;51.506;11.948;2023-11-21T02:22:54;9.65;;;5.72;;
7080;SDS011;3582;51.506;11.948;2023-11-21T02:25:24;9.52;;;5.43;;
7080;SDS011;3582;51.506;11.948;2023-11-21T02:27:49;7.63;;;6.50;;
7080;SDS011;3582;51.506;11.948;2023-11-21T02:30:16;9.93;;;6.68;;
7080;SDS011;3582;51.506;11.948;2023-11-21T02:32:43;8.95;;;5.50;;
7080;SDS011;3582;51.506;11.948;2023-11-21T02:35:09;7.07;;;5.30;;
7080;SDS011;3582;51.506;11.948;2023-11-21T02:37:37;8.20;;;5.13;;
7080;SDS011;3582;51.506;11.948;2023-11-21T02:40:03;7.75;;;5.95;;
7080;SDS011;3582;51.506;11.948;2023-11-21T02:42:31;9.63;;;6.35;;
7080;SDS011;3582;51.506;11.948;2023-11-21T02:44:57;8.20;;;5.60;;
7080;SDS011;3582;51.506;11.948;2023-11-21T02:47:23;9.70;;;6.63;;
7080;SDS011;3582;51.506;11.948;2023-11-21T02:49:49;11.15;;;6.20;;
7080;SDS011;3582;51.506;11.948;2023-11-21T02:52:17;5.85;;;5.25;;
7080;SDS011;3582;51.506;11.948;2023-11-21T02:54:44;8.32;;;6.05;;
7080;SDS011;3582;51.506;11.948;2023-11-21T02:57:10;9.00;;;5.90;;
7080;SDS011;3582;51.506;11.948;2023-11-21T02:59:36;12.27;;;5.88;;
7080;SDS011;3582;51.506;11.948;2023-11-21T03:02:02;11.90;;;6.17;;
7080;SDS011;3582;51.506;11.948;2023-11-21T03:04:28;8.02;;;6.43;;
7080;SDS011;3582;51.506;11.948;2023-11-21T03:06:54;11.07;;;6.00;;
7080;SDS011;3582;51.506;11.948;2023-11-21T03:09:20;9.03;;;5.70;;
7080;SDS011;3582;51.506;11.948;2023-11-21T03:11:46;8.17;;;5.63;;
7080;SDS011;3582;51.506;11.948;2023-11-21T03:14:12;6.22;;;5.63;;
7080;SDS011;3582;51.506;11.948;2023-11-21T03:16:38;5.85;;;5.00;;
7080;SDS011;3582;51.506;11.948;2023-11-21T03:19:06;7.25;;;6.55;;
7080;SDS011;3582;51.506;11.948;2023-11-21T03:21:33;7.70;;;5.60;;
7080;SDS011;3582;51.506;11.948;2023-11-21T03:23:59;9.87;;;5.70;;
7080;SDS011;3582;51.506;11.948;2023-11-21T03:26:25;8.60;;;6.15;;
7080;SDS011;3582;51.506;11.948;2023-11-21T03:28:51;9.82;;;6.20;;
7080;SDS011;3582;51.506;11.948;2023-11-21T03:31:18;8.57;;;6.28;;
7080;SDS011;3582;51.506;11.948;2023-11-21T03:33:45;10.63;;;6.32;;
7080;SDS011;3582;51.506;11.948;2023-11-21T03:36:12;11.32;;;6.30;;
7080;SDS011;3582;51.506;11.948;2023-11-21T03:38:39;10.65;;;6.68;;
7080;SDS011;3582;51.506;11.948;2023-11-21T03:41:05;7.27;;;5.67;;
7080;SDS011;3582;51.506;11.948;2023-11-21T03:43:31;11.17;;;6.37;;
7080;SDS011;3582;51.506;11.948;2023-11-21T03:45:57;11.73;;;7.23;;
7080;SDS011;3582;51.506;11.948;2023-11-21T03:48:23;15.03;;;6.60;;
7080;SDS011;3582;51.506;11.948;2023-11-21T03:50:49;10.73;;;6.63;;
7080;SDS011;3582;51.506;11.948;2023-11-21T03:53:15;11.77;;;8.10;;
7080;SDS011;3582;51.506;11.948;2023-11-21T03:55:41;9.15;;;7.40;;
7080;SDS011;3582;51.506;11.948;2023-11-21T03:58:07;12.50;;;7.53;;
7080;SDS011;3582;51.506;11.948;2023-11-21T04:00:33;12.77;;;7.20;;
7080;SDS011;3582;51.506;11.948;2023-11-21T04:02:59;10.70;;;6.90;;
7080;SDS011;3582;51.506;11.948;2023-11-21T04:05:25;13.80;;;8.83;;
7080;SDS011;3582;51.506;11.948;2023-11-21T04:07:51;12.90;;;8.23;;
7080;SDS011;3582;51.506;11.948;2023-11-21T04:10:17;12.23;;;8.40;;
7080;SDS011;3582;51.506;11.948;2023-11-21T04:12:43;12.65;;;8.65;;
7080;SDS011;3582;51.506;11.948;2023-11-21T04:15:10;24.80;;;10.27;;
7080;SDS011;3582;51.506;11.948;2023-11-21T04:17:38;18.50;;;9.48;;
7080;SDS011;3582;51.506;11.948;2023-11-21T04:20:04;10.68;;;7.80;;
7080;SDS011;3582;51.506;11.948;2023-11-21T04:22:40;11.80;;;8.30;;
7080;SDS011;3582;51.506;11.948;2023-11-21T04:25:08;10.45;;;7.88;;
7080;SDS011;3582;51.506;11.948;2023-11-21T04:27:35;10.18;;;6.55;;
7080;SDS011;3582;51.506;11.948;2023-11-21T04:30:01;10.77;;;7.83;;
7080;SDS011;3582;51.506;11.948;2023-11-21T04:32:27;12.47;;;7.90;;
7080;SDS011;3582;51.506;11.948;2023-11-21T04:34:53;11.27;;;8.47;;
7080;SDS011;3582;51.506;11.948;2023-11-21T04:37:19;14.93;;;10.17;;
7080;SDS011;3582;51.506;11.948;2023-11-21T04:39:45;9.57;;;8.07;;
7080;SDS011;3582;51.506;11.948;2023-11-21T04:42:11;15.87;;;8.40;;
7080;SDS011;3582;51.506;11.948;2023-11-21T04:44:37;11.60;;;9.90;;
7080;SDS011;3582;51.506;11.948;2023-11-21T04:47:06;14.23;;;8.63;;
7080;SDS011;3582;51.506;11.948;2023-11-21T04:49:32;14.35;;;9.38;;
7080;SDS011;3582;51.506;11.948;2023-11-21T04:51:58;16.10;;;8.93;;
7080;SDS011;3582;51.506;11.948;2023-11-21T04:54:24;9.43;;;8.43;;
7080;SDS011;3582;51.506;11.948;2023-11-21T04:56:50;12.00;;;9.20;;
7080;SDS011;3582;51.506;11.948;2023-11-21T04:59:16;15.15;;;10.07;;
7080;SDS011;3582;51.506;11.948;2023-11-21T05:01:42;13.63;;;9.20;;
7080;SDS011;3582;51.506;11.948;2023-11-21T05:04:08;11.43;;;9.50;;
7080;SDS011;3582;51.506;11.948;2023-11-21T05:06:34;15.47;;;10.27;;
7080;SDS011;3582;51.506;11.948;2023-11-21T05:09:00;11.25;;;7.97;;
7080;SDS011;3582;51.506;11.948;2023-11-21T05:11:26;16.20;;;11.20;;
7080;SDS011;3582;51.506;11.948;2023-11-21T05:13:53;11.38;;;8.23;;
7080;SDS011;3582;51.506;11.948;2023-11-21T05:16:20;19.48;;;12.38;;
7080;SDS011;3582;51.506;11.948;2023-11-21T05:18:47;11.90;;;9.40;;
7080;SDS011;3582;51.506;11.948;2023-11-21T05:21:15;14.43;;;10.52;;
7080;SDS011;3582;51.506;11.948;2023-11-21T05:23:41;11.20;;;8.03;;
7080;SDS011;3582;51.506;11.948;2023-11-21T05:26:07;15.50;;;9.80;;
7080;SDS011;3582;51.506;11.948;2023-11-21T05:28:33;17.50;;;9.83;;
7080;SDS011;3582;51.506;11.948;2023-11-21T05:30:59;12.23;;;10.20;;
7080;SDS011;3582;51.506;11.948;2023-11-21T05:33:25;13.97;;;10.50;;
7080;SDS011;3582;51.506;11.948;2023-11-21T05:35:51;16.80;;;9.20;;
7080;SDS011;3582;51.506;11.948;2023-11-21T05:38:17;15.43;;;10.75;;
7080;SDS011;3582;51.506;11.948;2023-11-21T05:40:43;13.77;;;9.63;;
7080;SDS011;3582;51.506;11.948;2023-11-21T05:43:09;14.67;;;10.00;;
7080;SDS011;3582;51.506;11.948;2023-11-21T05:45:35;11.63;;;8.40;;
7080;SDS011;3582;51.506;11.948;2023-11-21T05:48:00;14.60;;;10.00;;
7080;SDS011;3582;51.506;11.948;2023-11-21T05:50:27;14.88;;;9.40;;
7080;SDS011;3582;51.506;11.948;2023-11-21T05:52:53;12.23;;;8.80;;
7080;SDS011;3582;51.506;11.948;2023-11-21T05:55:22;21.10;;;10.63;;
7080;SDS011;3582;51.506;11.948;2023-11-21T05:57:50;14.75;;;10.98;;
7080;SDS011;3582;51.506;11.948;2023-11-21T06:00:16;17.40;;;12.70;;
7080;SDS011;3582;51.506;11.948;2023-11-21T06:02:47;21.52;;;11.88;;
7080;SDS011;3582;51.506;11.948;2023-11-21T06:05:15;13.00;;;9.85;;
7080;SDS011;3582;51.506;11.948;2023-11-21T06:07:42;28.08;;;13.32;;
7080;SDS011;3582;51.506;11.948;2023-11-21T06:10:08;19.37;;;12.60;;
7080;SDS011;3582;51.506;11.948;2023-11-21T06:12:36;18.55;;;10.70;;
7080;SDS011;3582;51.506;11.948;2023-11-21T06:15:05;18.35;;;11.45;;
7080;SDS011;3582;51.506;11.948;2023-11-21T06:17:33;19.88;;;12.02;;
7080;SDS011;3582;51.506;11.948;2023-11-21T06:20:03;17.88;;;12.43;;
7080;SDS011;3582;51.506;11.948;2023-11-21T06:22:34;15.32;;;11.70;;
7080;SDS011;3582;51.506;11.948;2023-11-21T06:25:00;15.55;;;10.35;;
7080;SDS011;3582;51.506;11.948;2023-11-21T06:27:28;17.10;;;10.13;;
7080;SDS011;3582;51.506;11.948;2023-11-21T06:29:54;22.80;;;13.25;;
7080;SDS011;3582;51.506;11.948;2023-11-21T06:32:21;16.90;;;11.50;;
7080;SDS011;3582;51.506;11.948;2023-11-21T06:34:47;20.73;;;12.73;;
7080;SDS011;3582;51.506;11.948;2023-11-21T06:37:14;18.55;;;10.25;;
7080;SDS011;3582;51.506;11.948;2023-11-21T06:39:41;34.53;;;12.13;;
7080;SDS011;3582;51.506;11.948;2023-11-21T06:42:07;19.58;;;15.10;;
7080;SDS011;3582;51.506;11.948;2023-11-21T06:44:33;17.53;;;12.13;;
7080;SDS011;3582;51.506;11.948;2023-11-21T06:47:00;18.80;;;12.38;;
7080;SDS011;3582;51.506;11.948;2023-11-21T06:49:26;17.23;;;11.68;;
7080;SDS011;3582;51.506;11.948;2023-11-21T06:51:52;19.20;;;11.83;;
7080;SDS011;3582;51.506;11.948;2023-11-21T06:54:19;18.15;;;11.80;;
7080;SDS011;3582;51.506;11.948;2023-11-21T06:56:45;30.85;;;12.10;;
7080;SDS011;3582;51.506;11.948;2023-11-21T06:59:12;26.58;;;12.38;;
7080;SDS011;3582;51.506;11.948;2023-11-21T07:01:38;18.02;;;13.27;;
7080;SDS011;3582;51.506;11.948;2023-11-21T07:04:06;25.58;;;15.68;;
7080;SDS011;3582;51.506;11.948;2023-11-21T07:06:32;24.95;;;15.98;;
7080;SDS011;3582;51.506;11.948;2023-11-21T07:08:58;25.58;;;15.52;;
7080;SDS011;3582;51.506;11.948;2023-11-21T07:11:24;29.65;;;17.58;;
7080;SDS011;3582;51.506;11.948;2023-11-21T07:13:50;27.63;;;16.73;;
7080;SDS011;3582;51.506;11.948;2023-11-21T07:16:17;33.38;;;16.35;;
7080;SDS011;3582;51.506;11.948;2023-11-21T07:18:43;34.47;;;19.02;;
7080;SDS011;3582;51.506;11.948;2023-11-21T07:21:09;27.27;;;17.13;;
7080;SDS011;3582;51.506;11.948;2023-11-21T07:23:37;25.98;;;15.50;;
7080;SDS011;3582;51.506;11.948;2023-11-21T07:26:03;23.52;;;13.95;;
7080;SDS011;3582;51.506;11.948;2023-11-21T07:28:33;18.70;;;12.52;;
7080;SDS011;3582;51.506;11.948;2023-11-21T07:31:00;20.85;;;11.95;;
7080;SDS011;3582;51.506;11.948;2023-11-21T07:33:26;15.35;;;10.73;;
7080;SDS011;3582;51.506;11.948;2023-11-21T07:35:52;18.57;;;11.10;;
7080;SDS011;3582;51.506;11.948;2023-11-21T07:38:18;9.65;;;7.78;;
7080;SDS011;3582;51.506;11.948;2023-11-21T07:40:44;12.70;;;7.60;;
7080;SDS011;3582;51.506;11.948;2023-11-21T07:43:10;10.40;;;7.10;;
7080;SDS011;3582;51.506;11.948;2023-11-21T07:45:36;15.20;;;8.77;;
7080;SDS011;3582;51.506;11.948;2023-11-21T07:48:02;13.00;;;8.25;;
7080;SDS011;3582;51.506;11.948;2023-11-21T07:50:30;14.00;;;8.75;;
7080;SDS011;3582;51.506;11.948;2023-11-21T07:52:56;16.83;;;8.80;;
7080;SDS011;3582;51.506;11.948;2023-11-21T07:55:23;11.85;;;8.30;;
7080;SDS011;3582;51.506;11.948;2023-11-21T07:57:49;12.90;;;9.40;;
7080;SDS011;3582;51.506;11.948;2023-11-21T08:00:16;13.60;;;8.77;;
7080;SDS011;3582;51.506;11.948;2023-11-21T08:02:42;12.57;;;9.73;;
7080;SDS011;3582;51.506;11.948;2023-11-21T08:05:11;14.60;;;9.15;;
7080;SDS011;3582;51.506;11.948;2023-11-21T08:07:37;12.20;;;7.95;;
7080;SDS011;3582;51.506;11.948;2023-11-21T08:10:03;10.23;;;7.82;;
7080;SDS011;3582;51.506;11.948;2023-11-21T08:12:35;12.35;;;7.95;;
7080;SDS011;3582;51.506;11.948;2023-11-21T08:15:01;16.37;;;9.83;;
7080;SDS011;3582;51.506;11.948;2023-11-21T08:17:28;18.58;;;10.52;;
7080;SDS011;3582;51.506;11.948;2023-11-21T08:19:54;11.73;;;8.18;;
7080;SDS011;3582;51.506;11.948;2023-11-21T08:22:20;13.83;;;9.33;;
7080;SDS011;3582;51.506;11.948;2023-11-21T08:24:47;14.43;;;10.60;;
7080;SDS011;3582;51.506;11.948;2023-11-21T08:27:13;15.63;;;9.43;;
7080;SDS011;3582;51.506;11.948;2023-11-21T08:29:42;18.10;;;11.95;;
7080;SDS011;3582;51.506;11.948;2023-11-21T08:32:08;19.65;;;11.57;;
7080;SDS011;3582;51.506;11.948;2023-11-21T08:34:34;18.00;;;10.30;;
7080;SDS011;3582;51.506;11.948;2023-11-21T08:37:00;17.88;;;11.63;;
7080;SDS011;3582;51.506;11.948;2023-11-21T08:39:26;22.00;;;11.50;;
7080;SDS011;3582;51.506;11.948;2023-11-21T08:41:52;26.27;;;12.70;;
7080;SDS011;3582;51.506;11.948;2023-11-21T08:44:18;19.53;;;12.37;;
7080;SDS011;3582;51.506;11.948;2023-11-21T08:46:44;20.83;;;12.67;;
7080;SDS011;3582;51.506;11.948;2023-11-21T08:49:11;15.10;;;12.10;;
7080;SDS011;3582;51.506;11.948;2023-11-21T08:51:38;22.75;;;13.23;;
7080;SDS011;3582;51.506;11.948;2023-11-21T08:54:04;18.50;;;12.40;;
7080;SDS011;3582;51.506;11.948;2023-11-21T08:56:33;26.83;;;14.60;;
7080;SDS011;3582;51.506;11.948;2023-11-21T08:58:59;22.10;;;14.35;;
7080;SDS011;3582;51.506;11.948;2023-11-21T09:01:28;26.75;;;15.32;;
7080;SDS011;3582;51.506;11.948;2023-11-21T09:03:57;24.90;;;15.25;;
7080;SDS011;3582;51.506;11.948;2023-11-21T09:06:24;22.70;;;14.30;;
7080;SDS011;3582;51.506;11.948;2023-11-21T09:08:50;31.05;;;16.88;;
7080;SDS011;3582;51.506;11.948;2023-11-21T09:11:16;26.15;;;15.88;;
7080;SDS011;3582;51.506;11.948;2023-11-21T09:13:42;28.17;;;16.05;;
7080;SDS011;3582;51.506;11.948;2023-11-21T09:16:09;27.27;;;17.40;;
7080;SDS011;3582;51.506;11.948;2023-11-21T09:18:35;21.23;;;14.02;;
7080;SDS011;3582;51.506;11.948;2023-11-21T09:21:01;15.83;;;12.03;;
7080;SDS011;3582;51.506;11.948;2023-11-21T09:23:29;20.67;;;12.93;;
7080;SDS011;3582;51.506;11.948;2023-11-21T09:25:55;25.73;;;14.88;;
7080;SDS011;3582;51.506;11.948;2023-11-21T09:28:22;19.75;;;13.43;;
7080;SDS011;3582;51.506;11.948;2023-11-21T09:30:48;21.90;;;14.98;;
7080;SDS011;3582;51.506;11.948;2023-11-21T09:33:15;27.73;;;16.60;;
7080;SDS011;3582;51.506;11.948;2023-11-21T09:35:41;22.27;;;14.85;;
7080;SDS011;3582;51.506;11.948;2023-11-21T09:38:08;24.13;;;15.57;;
7080;SDS011;3582;51.506;11.948;2023-11-21T09:40:35;24.27;;;17.92;;
7080;SDS011;3582;51.506;11.948;2023-11-21T09:43:06;27.38;;;16.55;;
7080;SDS011;3582;51.506;11.948;2023-11-21T09:45:34;23.85;;;15.43;;
7080;SDS011;3582;51.506;11.948;2023-11-21T09:48:01;21.45;;;14.65;;
7080;SDS011;3582;51.506;11.948;2023-11-21T09:50:27;20.95;;;15.88;;
7080;SDS011;3582;51.506;11.948;2023-11-21T09:52:55;23.33;;;14.55;;
7080;SDS011;3582;51.506;11.948;2023-11-21T09:55:22;16.42;;;12.38;;
7080;SDS011;3582;51.506;11.948;2023-11-21T09:57:52;21.13;;;11.45;;
7080;SDS011;3582;51.506;11.948;2023-11-21T10:00:18;22.48;;;13.43;;
7080;SDS011;3582;51.506;11.948;2023-11-21T10:02:46;21.25;;;13.27;;
7080;SDS011;3582;51.506;11.948;2023-11-21T10:05:14;20.63;;;13.05;;
7080;SDS011;3582;51.506;11.948;2023-11-21T10:07:42;19.88;;;13.38;;
7080;SDS011;3582;51.506;11.948;2023-11-21T10:10:10;20.80;;;15.02;;
7080;SDS011;3582;51.506;11.948;2023-11-21T10:12:36;20.75;;;14.23;;
7080;SDS011;3582;51.506;11.948;2023-11-21T10:15:03;32.75;;;15.98;;
7080;SDS011;3582;51.506;11.948;2023-11-21T10:17:32;17.42;;;12.88;;
7080;SDS011;3582;51.506;11.948;2023-11-21T10:20:08;19.00;;;12.20;;
7080;SDS011;3582;51.506;11.948;2023-11-21T10:22:41;17.90;;;11.50;;
7080;SDS011;3582;51.506;11.948;2023-11-21T10:25:11;19.33;;;13.15;;
7080;SDS011;3582;51.506;11.948;2023-11-21T10:27:46;19.98;;;11.95;;
7080;SDS011;3582;51.506;11.948;2023-11-21T10:30:12;15.90;;;13.02;;
7080;SDS011;3582;51.506;11.948;2023-11-21T10:32:38;20.02;;;11.95;;
7080;SDS011;3582;51.506;11.948;2023-11-21T10:35:05;17.33;;;11.43;;
7080;SDS011;3582;51.506;11.948;2023-11-21T10:37:34;22.05;;;12.65;;
7080;SDS011;3582;51.506;11.948;2023-11-21T10:40:01;14.98;;;11.07;;
7080;SDS011;3582;51.506;11.948;2023-11-21T10:42:27;16.45;;;11.45;;
7080;SDS011;3582;51.506;11.948;2023-11-21T10:44:53;29.77;;;13.63;;
7080;SDS011;3582;51.506;11.948;2023-11-21T10:47:19;16.25;;;11.13;;
7080;SDS011;3582;51.506;11.948;2023-11-21T10:49:51;17.05;;;9.93;;
7080;SDS011;3582;51.506;11.948;2023-11-21T10:52:18;21.17;;;11.50;;
7080;SDS011;3582;51.506;11.948;2023-11-21T10:54:45;12.52;;;11.13;;
7080;SDS011;3582;51.506;11.948;2023-11-21T10:57:11;17.90;;;11.88;;
7080;SDS011;3582;51.506;11.948;2023-11-21T10:59:40;15.23;;;11.20;;
7080;SDS011;3582;51.506;11.948;2023-11-21T11:02:18;15.13;;;10.98;;
7080;SDS011;3582;51.506;11.948;2023-11-21T11:04:46;15.00;;;11.30;;
7080;SDS011;3582;51.506;11.948;2023-11-21T11:07:12;15.30;;;10.82;;
7080;SDS011;3582;51.506;11.948;2023-11-21T11:09:38;15.88;;;11.70;;
7080;SDS011;3582;51.506;11.948;2023-11-21T11:12:05;15.80;;;12.20;;
7080;SDS011;3582;51.506;11.948;2023-11-21T11:14:32;18.10;;;13.60;;
7080;SDS011;3582;51.506;11.948;2023-11-21T11:16:58;17.85;;;13.13;;
7080;SDS011;3582;51.506;11.948;2023-11-21T11:19:25;18.52;;;12.48;;
7080;SDS011;3582;51.506;11.948;2023-11-21T11:24:44;16.17;;;13.60;;
7080;SDS011;3582;51.506;11.948;2023-11-21T11:29:48;21.83;;;15.15;;
7080;SDS011;3582;51.506;11.948;2023-11-21T11:35:19;21.00;;;12.50;;
7080;SDS011;3582;51.506;11.948;2023-11-21T11:37:48;22.23;;;16.23;;
7080;SDS011;3582;51.506;11.948;2023-11-21T11:40:14;23.65;;;16.85;;
7080;SDS011;3582;51.506;11.948;2023-11-21T11:42:54;22.70;;;15.80;;
7080;SDS011;3582;51.506;11.948;2023-11-21T11:45:22;22.75;;;14.30;;
7080;SDS011;3582;51.506;11.948;2023-11-21T11:47:48;25.02;;;15.07;;
7080;SDS011;3582;51.506;11.948;2023-11-21T11:50:14;31.50;;;17.45;;
7080;SDS011;3582;51.506;11.948;2023-11-21T11:52:48;26.67;;;16.75;;
7080;SDS011;3582;51.506;11.948;2023-11-21T11:55:16;29.10;;;17.90;;
7080;SDS011;3582;51.506;11.948;2023-11-21T11:57:51;26.48;;;17.25;;
7080;SDS011;3582;51.506;11.948;2023-11-21T12:00:21;23.17;;;16.50;;
7080;SDS011;3582;51.506;11.948;2023-11-21T12:03:08;27.48;;;17.02;;
7080;SDS011;3582;51.506;11.948;2023-11-21T12:05:35;23.75;;;16.63;;
7080;SDS011;3582;51.506;11.948;2023-11-21T12:08:04;26.63;;;17.02;;
7080;SDS011;3582;51.506;11.948;2023-11-21T12:10:32;30.35;;;18.38;;
7080;SDS011;3582;51.506;11.948;2023-11-21T12:13:02;27.77;;;17.63;;
7080;SDS011;3582;51.506;11.948;2023-11-21T12:15:28;29.63;;;19.02;;
7080;SDS011;3582;51.506;11.948;2023-11-21T12:17:56;26.63;;;16.45;;
7080;SDS011;3582;51.506;11.948;2023-11-21T12:20:23;28.27;;;16.50;;
7080;SDS011;3582;51.506;11.948;2023-11-21T12:22:50;23.27;;;15.00;;
7080;SDS011;3582;51.506;11.948;2023-11-21T12:25:16;24.17;;;15.02;;
7080;SDS011;3582;51.506;11.948;2023-11-21T12:27:44;23.80;;;14.95;;
7080;SDS011;3582;51.506;11.948;2023-11-21T12:30:10;35.20;;;17.60;;
7080;SDS011;3582;51.506;11.948;2023-11-21T12:32:41;29.25;;;16.95;;
7080;SDS011;3582;51.506;11.948;2023-11-21T12:35:08;26.25;;;17.08;;
7080;SDS011;3582;51.506;11.948;2023-11-21T12:37:36;23.58;;;15.55;;
7080;SDS011;3582;51.506;11.948;2023-11-21T12:40:03;18.52;;;13.30;;
7080;SDS011;3582;51.506;11.948;2023-11-21T12:42:29;18.40;;;12.82;;
7080;SDS011;3582;51.506;11.948;2023-11-21T12:45:08;18.23;;;13.68;;
7080;SDS011;3582;51.506;11.948;2023-11-21T12:47:43;21.10;;;13.32;;
7080;SDS011;3582;51.506;11.948;2023-11-21T12:50:10;21.75;;;13.85;;
7080;SDS011;3582;51.506;11.948;2023-11-21T12:52:44;19.50;;;13.93;;
7080;SDS011;3582;51.506;11.948;2023-11-21T12:55:15;19.70;;;13.55;;
7080;SDS011;3582;51.506;11.948;2023-11-21T12:57:42;20.42;;;12.80;;
7080;SDS011;3582;51.506;11.948;2023-11-21T13:00:08;18.15;;;11.60;;
7080;SDS011;3582;51.506;11.948;2023-11-21T13:02:41;15.75;;;11.27;;
7080;SDS011;3582;51.506;11.948;2023-11-21T13:05:09;12.90;;;10.32;;
7080;SDS011;3582;51.506;11.948;2023-11-21T13:07:46;16.10;;;12.25;;
7080;SDS011;3582;51.506;11.948;2023-11-21T13:10:12;16.08;;;11.70;;
7080;SDS011;3582;51.506;11.948;2023-11-21T13:12:42;15.63;;;12.20;;
7080;SDS011;3582;51.506;11.948;2023-11-21T13:15:09;13.73;;;10.00;;
7080;SDS011;3582;51.506;11.948;2023-11-21T13:17:35;14.13;;;11.10;;
7080;SDS011;3582;51.506;11.948;2023-11-21T13:20:01;14.30;;;10.97;;
7080;SDS011;3582;51.506;11.948;2023-11-21T13:22:33;13.55;;;11.00;;
7080;SDS011;3582;51.506;11.948;2023-11-21T13:25:00;15.10;;;10.90;;
7080;SDS011;3582;51.506;11.948;2023-11-21T13:27:32;15.45;;;11.55;;
7080;SDS011;3582;51.506;11.948;2023-11-21T13:29:59;13.73;;;10.32;;
7080;SDS011;3582;51.506;11.948;2023-11-21T13:32:25;13.20;;;9.67;;
7080;SDS011;3582;51.506;11.948;2023-11-21T13:34:51;12.90;;;10.00;;
7080;SDS011;3582;51.506;11.948;2023-11-21T13:37:19;12.80;;;9.68;;
7080;SDS011;3582;51.506;11.948;2023-11-21T13:39:45;15.50;;;10.53;;
7080;SDS011;3582;51.506;11.948;2023-11-21T13:42:15;17.00;;;10.30;;
7080;SDS011;3582;51.506;11.948;2023-11-21T13:44:41;17.95;;;10.18;;
7080;SDS011;3582;51.506;11.948;2023-11-21T13:47:11;15.02;;;10.20;;
7080;SDS011;3582;51.506;11.948;2023-11-21T13:49:37;14.18;;;9.55;;
7080;SDS011;3582;51.506;11.948;2023-11-21T13:52:06;11.55;;;9.40;;
7080;SDS011;3582;51.506;11.948;2023-11-21T13:54:32;11.63;;;10.10;;
7080;SDS011;3582;51.506;11.948;2023-11-21T13:56:58;15.18;;;9.60;;
7080;SDS011;3582;51.506;11.948;2023-11-21T13:59:25;18.75;;;11.27;;
7080;SDS011;3582;51.506;11.948;2023-11-21T14:01:53;11.07;;;8.10;;
7080;SDS011;3582;51.506;11.948;2023-11-21T14:04:25;10.55;;;8.73;;
7080;SDS011;3582;51.506;11.948;2023-11-21T14:06:57;11.18;;;8.40;;
7080;SDS011;3582;51.506;11.948;2023-11-21T14:09:25;13.23;;;9.05;;
7080;SDS011;3582;51.506;11.948;2023-11-21T14:11:57;16.83;;;9.30;;
7080;SDS011;3582;51.506;11.948;2023-11-21T14:14:27;13.73;;;9.52;;
7080;SDS011;3582;51.506;11.948;2023-11-21T14:16:53;16.00;;;8.77;;
7080;SDS011;3582;51.506;11.948;2023-11-21T14:19:21;14.02;;;10.07;;
7080;SDS011;3582;51.506;11.948;2023-11-21T14:21:52;15.80;;;9.30;;
7080;SDS011;3582;51.506;11.948;2023-11-21T14:24:18;10.53;;;7.27;;
7080;SDS011;3582;51.506;11.948;2023-11-21T14:26:44;11.07;;;8.20;;
7080;SDS011;3582;51.506;11.948;2023-11-21T14:29:11;9.15;;;8.18;;
7080;SDS011;3582;51.506;11.948;2023-11-21T14:31:39;11.50;;;8.63;;
7080;SDS011;3582;51.506;11.948;2023-11-21T14:34:06;8.77;;;7.63;;
7080;SDS011;3582;51.506;11.948;2023-11-21T14:36:33;11.23;;;9.55;;
7080;SDS011;3582;51.506;11.948;2023-11-21T14:38:59;10.20;;;9.07;;
7080;SDS011;3582;51.506;11.948;2023-11-21T14:41:25;17.80;;;10.20;;
7080;SDS011;3582;51.506;11.948;2023-11-21T14:43:53;12.57;;;8.85;;
7080;SDS011;3582;51.506;11.948;2023-11-21T14:46:20;18.60;;;10.23;;
7080;SDS011;3582;51.506;11.948;2023-11-21T14:48:46;12.83;;;9.73;;
7080;SDS011;3582;51.506;11.948;2023-11-21T14:51:23;19.45;;;11.40;;